Time;durP1;ratioP1;P1;durP2;ratioP2;P2;SDS_P1;SDS_P2;PMS_P1;PMS_P2;Temp;Humidity;BMP_temperature;BMP_pressure;BME280_temperature;BME280_humidity;BME280_pressure;Samples;Min_cycle;Max_cycle;Signal;HPM_P1;HPM_P2
2021/05/12 00:02:07;;;;;;;7.10;3.53;;;15.80;57.80;;;;;;4994765;28;20456;-87
2021/05/12 00:04:34;;;;;;;4.37;3.30;;;15.80;57.70;;;;;;4994229;28;20452;-87
2021/05/12 00:07:01;;;;;;;5.70;3.50;;;15.80;57.70;;;;;;4994776;28;20584;-87
2021/05/12 00:09:27;;;;;;;4.20;3.23;;;15.80;57.30;;;;;;4996327;28;20484;-87
2021/05/12 00:11:54;;;;;;;5.27;3.43;;;15.60;58.30;;;;;;5000150;28;20454;-87
2021/05/12 00:14:20;;;;;;;10.00;3.30;;;15.50;59.00;;;;;;4998996;28;20526;-87
2021/05/12 00:16:46;;;;;;;4.73;3.97;;;15.50;58.80;;;;;;4998185;28;20479;-87
2021/05/12 00:19:13;;;;;;;4.57;3.50;;;15.60;58.50;;;;;;4997483;28;20514;-88
2021/05/12 00:21:43;;;;;;;5.20;3.47;;;15.30;59.00;;;;;;4997926;28;20452;-87
2021/05/12 00:24:11;;;;;;;4.00;2.97;;;15.30;59.80;;;;;;4997455;28;20435;-87
2021/05/12 00:26:38;;;;;;;3.00;2.80;;;15.40;59.20;;;;;;4997739;28;21010;-87
2021/05/12 00:29:06;;;;;;;3.93;3.20;;;15.10;60.10;;;;;;4997837;28;20473;-88
2021/05/12 00:31:32;;;;;;;5.20;3.50;;;14.80;60.90;;;;;;4998526;28;20873;-88
2021/05/12 00:33:59;;;;;;;5.20;3.60;;;14.80;61.60;;;;;;4997672;28;20927;-88
2021/05/12 00:36:26;;;;;;;6.07;2.93;;;15.10;60.50;;;;;;4997990;28;20527;-88
2021/05/12 00:38:52;;;;;;;6.13;3.40;;;15.40;59.10;;;;;;4997646;28;20973;-88
2021/05/12 00:41:20;;;;;;;3.23;2.53;;;15.70;58.40;;;;;;4997884;28;20486;-88
2021/05/12 00:43:46;;;;;;;4.97;2.50;;;16.10;56.80;;;;;;4997677;28;20471;-88
2021/05/12 00:46:13;;;;;;;3.30;2.87;;;16.30;55.90;;;;;;4997744;28;20945;-88
2021/05/12 00:48:39;;;;;;;8.30;3.27;;;16.00;57.10;;;;;;4997250;28;20479;-87
2021/05/12 00:51:06;;;;;;;3.07;2.73;;;16.10;56.90;;;;;;4997687;28;20840;-87
2021/05/12 00:53:33;;;;;;;3.30;2.80;;;16.10;56.70;;;;;;4998245;28;20892;-87
2021/05/12 00:56:00;;;;;;;3.87;2.53;;;15.70;57.20;;;;;;4999075;28;20459;-87
2021/05/12 00:58:27;;;;;;;4.17;2.50;;;15.10;59.70;;;;;;4998902;28;20448;-87
2021/05/12 01:00:54;;;;;;;3.30;2.60;;;15.30;59.30;;;;;;4998617;28;20460;-87
2021/05/12 01:03:20;;;;;;;2.30;2.20;;;15.60;58.10;;;;;;4998770;28;20468;-87
2021/05/12 01:06:00;;;;;;;4.53;2.70;;;16.00;56.90;;;;;;4999104;28;20521;-86
2021/05/12 01:08:28;;;;;;;8.17;3.37;;;16.30;55.30;;;;;;4996792;28;20581;-87
2021/05/12 01:10:55;;;;;;;3.30;2.63;;;16.30;56.60;;;;;;4996885;28;20461;-87
2021/05/12 01:13:23;;;;;;;7.10;2.70;;;16.30;55.80;;;;;;4997053;28;20817;-87
2021/05/12 01:15:51;;;;;;;3.23;2.60;;;16.30;55.40;;;;;;4996746;28;20460;-87
2021/05/12 01:18:19;;;;;;;3.27;2.10;;;16.50;55.10;;;;;;4996759;28;20935;-87
2021/05/12 01:20:51;;;;;;;2.53;2.37;;;16.30;55.30;;;;;;4996875;28;20451;-87
2021/05/12 01:23:19;;;;;;;5.73;2.60;;;15.60;57.00;;;;;;4998187;28;20928;-87
2021/05/12 01:25:46;;;;;;;2.60;2.50;;;15.40;58.40;;;;;;4996757;28;20865;-87
2021/05/12 01:28:13;;;;;;;4.03;2.53;;;15.60;57.70;;;;;;4996455;28;20517;-87
2021/05/12 01:30:40;;;;;;;2.80;2.70;;;15.80;57.00;;;;;;4996509;28;20450;-87
2021/05/12 01:33:06;;;;;;;2.40;2.20;;;15.80;57.70;;;;;;4996381;28;20541;-87
2021/05/12 01:35:33;;;;;;;3.97;2.60;;;15.60;57.40;;;;;;4996398;28;20462;-87
2021/05/12 01:38:01;;;;;;;2.50;2.33;;;15.60;57.50;;;;;;4996432;28;20605;-87
2021/05/12 01:40:28;;;;;;;2.67;2.10;;;16.10;55.60;;;;;;4996046;28;20980;-87
2021/05/12 01:42:54;;;;;;;2.60;2.30;;;16.00;55.90;;;;;;4997022;28;20441;-87
2021/05/12 01:45:21;;;;;;;2.70;2.57;;;15.50;57.10;;;;;;4996410;28;20452;-87
2021/05/12 01:47:47;;;;;;;2.40;2.27;;;15.20;58.50;;;;;;4996473;28;20619;-87
2021/05/12 01:50:14;;;;;;;4.43;2.30;;;15.30;58.30;;;;;;4996388;28;20836;-87
2021/05/12 01:52:43;;;;;;;3.47;2.60;;;15.40;58.80;;;;;;4996430;28;20490;-87
2021/05/12 01:55:13;;;;;;;3.90;2.80;;;15.20;59.30;;;;;;4995961;28;21015;-87
2021/05/12 01:57:44;;;;;;;2.43;2.23;;;15.00;59.30;;;;;;4996995;28;20446;-87
2021/05/12 02:00:26;;;;;;;2.50;2.30;;;15.30;58.10;;;;;;4996132;28;20496;-87
2021/05/12 02:02:53;;;;;;;4.80;2.43;;;15.00;58.60;;;;;;4996688;28;20461;-87
2021/05/12 02:05:20;;;;;;;4.70;2.07;;;15.30;57.80;;;;;;4995979;28;20436;-87
2021/05/12 02:07:48;;;;;;;2.70;2.13;;;15.30;57.50;;;;;;4996095;28;20485;-87
2021/05/12 02:10:15;;;;;;;3.23;2.27;;;15.30;57.00;;;;;;4995637;28;20559;-87
2021/05/12 02:12:42;;;;;;;5.70;2.30;;;15.30;56.90;;;;;;4995818;28;20890;-86
2021/05/12 02:15:11;;;;;;;3.17;2.10;;;15.30;57.10;;;;;;4995590;28;20936;-87
2021/05/12 02:17:37;;;;;;;2.13;2.03;;;15.40;56.30;;;;;;4995920;28;21012;-87
2021/05/12 02:20:06;;;;;;;2.87;2.23;;;15.40;56.10;;;;;;4995679;28;20951;-87
2021/05/12 02:22:32;;;;;;;4.80;2.30;;;15.50;55.70;;;;;;4995579;28;20954;-86
2021/05/12 02:24:59;;;;;;;2.20;2.00;;;15.60;55.00;;;;;;4996031;28;20434;-86
2021/05/12 02:27:26;;;;;;;2.83;2.20;;;15.50;55.20;;;;;;4995771;28;20905;-86
2021/05/12 02:29:52;;;;;;;2.87;2.00;;;15.30;56.00;;;;;;4995482;28;20470;-87
2021/05/12 02:32:19;;;;;;;2.87;2.27;;;15.10;56.00;;;;;;4995302;28;20491;-86
2021/05/12 02:34:45;;;;;;;4.30;2.13;;;14.90;57.00;;;;;;4995692;28;20458;-86
2021/05/12 02:37:11;;;;;;;7.27;2.23;;;14.70;56.50;;;;;;4995621;28;20478;-86
2021/05/12 02:39:38;;;;;;;2.20;2.10;;;14.40;57.20;;;;;;4995407;28;20511;-86
2021/05/12 02:42:05;;;;;;;2.73;1.90;;;14.30;58.00;;;;;;4995325;28;20482;-87
2021/05/12 02:44:32;;;;;;;6.33;2.33;;;14.30;58.30;;;;;;4994964;28;20483;-87
2021/05/12 02:46:59;;;;;;;2.67;2.30;;;14.50;57.60;;;;;;4994863;28;20569;-87
2021/05/12 02:49:25;;;;;;;2.53;2.10;;;14.50;57.70;;;;;;4994970;28;20499;-86
2021/05/12 02:51:51;;;;;;;2.30;2.00;;;14.60;57.50;;;;;;4995390;28;20852;-87
2021/05/12 02:54:18;;;;;;;3.60;2.30;;;14.40;57.90;;;;;;4994596;28;20471;-87
2021/05/12 02:56:45;;;;;;;6.33;2.17;;;14.50;57.50;;;;;;4994624;28;21016;-87
2021/05/12 02:59:11;;;;;;;4.30;2.40;;;14.60;57.00;;;;;;4995286;28;20462;-87
2021/05/12 03:01:39;;;;;;;3.40;2.10;;;14.80;56.90;;;;;;4995386;28;20453;-86
2021/05/12 03:04:05;;;;;;;5.30;2.20;;;14.60;57.30;;;;;;4995193;28;20523;-87
2021/05/12 03:06:32;;;;;;;4.60;2.57;;;14.20;58.60;;;;;;4995173;28;20525;-87
2021/05/12 03:08:58;;;;;;;2.73;2.20;;;14.30;58.50;;;;;;4995024;28;20529;-87
2021/05/12 03:11:24;;;;;;;6.27;2.63;;;14.10;58.90;;;;;;4994795;28;20528;-87
2021/05/12 03:13:51;;;;;;;2.57;2.13;;;14.30;58.00;;;;;;4995019;28;20452;-87
2021/05/12 03:16:17;;;;;;;2.17;2.00;;;14.10;58.90;;;;;;4994688;28;20913;-87
2021/05/12 03:18:45;;;;;;;4.60;2.47;;;14.20;59.10;;;;;;4994558;28;20590;-87
2021/05/12 03:21:11;;;;;;;2.73;2.17;;;14.50;58.00;;;;;;4993899;28;20526;-88
2021/05/12 03:23:37;;;;;;;3.93;2.40;;;14.50;57.80;;;;;;4993826;28;20538;-88
2021/05/12 03:26:04;;;;;;;2.60;2.50;;;14.70;57.20;;;;;;4993345;28;20896;-88
2021/05/12 03:28:30;;;;;;;3.63;2.30;;;14.80;56.80;;;;;;4993519;28;20841;-88
2021/05/12 03:30:57;;;;;;;4.90;2.40;;;14.50;57.40;;;;;;4993462;28;20499;-88
2021/05/12 03:33:24;;;;;;;4.83;2.60;;;14.60;57.70;;;;;;4993943;28;20440;-88
2021/05/12 03:35:51;;;;;;;6.20;2.93;;;14.70;57.20;;;;;;4993473;28;20491;-88
2021/05/12 03:38:17;;;;;;;4.30;2.70;;;14.50;57.00;;;;;;4994469;28;20944;-88
2021/05/12 03:40:44;;;;;;;7.47;2.70;;;14.40;58.00;;;;;;4994495;28;20470;-88
2021/05/12 03:43:11;;;;;;;3.37;2.40;;;14.60;57.60;;;;;;4993909;28;20499;-88
2021/05/12 03:45:38;;;;;;;3.40;2.33;;;14.70;57.10;;;;;;4996074;28;20498;-88
2021/05/12 03:48:06;;;;;;;6.80;2.80;;;15.00;56.10;;;;;;4997897;28;20848;-88
2021/05/12 03:50:33;;;;;;;3.47;2.50;;;15.00;55.70;;;;;;5009040;28;20512;-88
2021/05/12 03:53:01;;;;;;;20.93;2.80;;;14.90;56.30;;;;;;5020857;28;20455;-87
2021/05/12 03:55:28;;;;;;;8.03;2.10;;;14.60;57.00;;;;;;5006803;28;20444;-88
2021/05/12 03:57:54;;;;;;;2.30;2.10;;;14.60;57.40;;;;;;4999432;28;20769;-87
2021/05/12 04:00:21;;;;;;;7.93;2.50;;;14.50;57.80;;;;;;5004917;28;20511;-87
2021/05/12 04:02:48;;;;;;;5.00;2.37;;;14.60;57.10;;;;;;5000861;28;20486;-88
2021/05/12 04:05:15;;;;;;;3.87;2.47;;;14.60;57.80;;;;;;4991890;28;20505;-88
2021/05/12 04:07:43;;;;;;;3.33;2.40;;;14.70;57.20;;;;;;4989593;28;20578;-88
2021/05/12 04:10:11;;;;;;;2.90;2.60;;;14.60;57.60;;;;;;5001761;28;20501;-88
2021/05/12 04:12:38;;;;;;;3.40;2.20;;;14.80;56.70;;;;;;5001673;28;20468;-88
2021/05/12 04:15:06;;;;;;;2.57;2.13;;;15.20;56.30;;;;;;4994315;28;20459;-87
2021/05/12 04:17:33;;;;;;;3.97;2.60;;;15.00;56.60;;;;;;5008981;28;20443;-87
2021/05/12 04:19:59;;;;;;;4.00;2.60;;;15.10;56.10;;;;;;5020173;28;20488;-87
2021/05/12 04:22:25;;;;;;;3.90;2.63;;;15.40;54.60;;;;;;5020248;28;20464;-87
2021/05/12 04:24:52;;;;;;;4.13;2.60;;;15.20;55.20;;;;;;5020154;28;20458;-87
2021/05/12 04:27:19;;;;;;;7.93;2.80;;;14.90;56.20;;;;;;5020136;28;20474;-87
2021/05/12 04:29:46;;;;;;;4.33;2.53;;;14.60;56.90;;;;;;5021283;28;20466;-86
2021/05/12 04:32:13;;;;;;;5.33;2.30;;;14.50;57.80;;;;;;5020057;28;20444;-86
2021/05/12 04:34:39;;;;;;;4.03;2.63;;;14.90;57.00;;;;;;5015974;28;20944;-87
2021/05/12 04:37:06;;;;;;;5.70;3.23;;;14.70;57.00;;;;;;5016572;28;20446;-87
2021/05/12 04:39:32;;;;;;;8.67;2.80;;;14.70;56.60;;;;;;5019335;28;20466;-87
2021/05/12 04:41:59;;;;;;;2.70;2.57;;;14.60;57.00;;;;;;5019426;28;20446;-86
2021/05/12 04:44:26;;;;;;;5.10;2.80;;;14.70;56.70;;;;;;5019390;28;20474;-89
2021/05/12 04:46:53;;;;;;;7.67;3.60;;;14.80;56.00;;;;;;5019029;28;20458;-89
2021/05/12 04:49:19;;;;;;;4.83;3.10;;;14.30;57.90;;;;;;5017743;28;20451;-91
2021/05/12 04:51:46;;;;;;;3.17;2.30;;;14.10;58.30;;;;;;5001975;28;20426;-88
2021/05/12 04:54:12;;;;;;;4.10;3.03;;;14.40;58.60;;;;;;5019780;28;20440;-90
2021/05/12 04:56:39;;;;;;;3.60;2.43;;;14.90;56.10;;;;;;5018013;28;20447;-93
2021/05/12 04:59:05;;;;;;;4.23;3.03;;;15.10;55.70;;;;;;5017295;28;20463;-89
2021/05/12 05:01:33;;;;;;;6.10;3.00;;;14.90;54.60;;;;;;5019716;28;20435;-88
2021/05/12 05:04:00;;;;;;;2.90;2.60;;;14.90;55.50;;;;;;5019515;28;20453;-88
2021/05/12 05:06:27;;;;;;;2.70;2.40;;;14.50;56.50;;;;;;5016887;28;20515;-87
2021/05/12 05:08:53;;;;;;;4.50;3.20;;;14.50;57.40;;;;;;4997732;28;20509;-87
2021/05/12 05:11:20;;;;;;;3.87;2.70;;;14.20;57.60;;;;;;4995924;28;20498;-87
2021/05/12 05:13:46;;;;;;;3.60;2.40;;;14.30;57.50;;;;;;4995663;28;20443;-87
2021/05/12 05:16:13;;;;;;;6.73;3.17;;;14.60;57.60;;;;;;4995972;28;20534;-87
2021/05/12 05:18:40;;;;;;;3.60;2.80;;;14.30;57.60;;;;;;4996483;28;20974;-87
2021/05/12 05:21:07;;;;;;;5.90;2.80;;;14.40;57.40;;;;;;4996414;28;20535;-87
2021/05/12 05:23:34;;;;;;;4.80;3.10;;;13.80;59.30;;;;;;5003296;28;20455;-87
2021/05/12 05:26:00;;;;;;;6.93;2.90;;;14.00;58.20;;;;;;4998023;28;20451;-87
2021/05/12 05:28:27;;;;;;;2.90;2.40;;;14.00;57.90;;;;;;5018412;28;20483;-89
2021/05/12 05:30:53;;;;;;;2.43;2.20;;;13.80;56.80;;;;;;5019493;28;20439;-88
2021/05/12 05:33:19;;;;;;;2.90;2.47;;;13.70;57.10;;;;;;5019338;28;20443;-89
2021/05/12 05:35:47;;;;;;;8.33;2.47;;;13.50;57.50;;;;;;5019382;28;20485;-89
2021/05/12 05:38:13;;;;;;;2.83;2.20;;;13.20;57.80;;;;;;5019085;28;20455;-88
2021/05/12 05:40:40;;;;;;;2.50;2.30;;;13.00;57.50;;;;;;5019370;28;20434;-89
2021/05/12 05:43:08;;;;;;;4.70;2.07;;;13.00;57.30;;;;;;5018334;28;20470;-88
2021/05/12 05:45:34;;;;;;;2.60;2.40;;;13.10;57.20;;;;;;5017833;28;20439;-87
2021/05/12 05:48:01;;;;;;;3.67;2.57;;;13.10;57.60;;;;;;5019070;28;20481;-88
2021/05/12 05:50:28;;;;;;;2.50;2.40;;;13.60;54.70;;;;;;5019131;28;20462;-88
2021/05/12 05:52:55;;;;;;;3.10;2.20;;;13.60;55.60;;;;;;5018763;28;20486;-88
2021/05/12 05:55:22;;;;;;;2.20;2.00;;;13.80;55.30;;;;;;5018948;28;20454;-88
2021/05/12 05:57:49;;;;;;;2.10;2.00;;;13.70;55.50;;;;;;5019023;28;20443;-89
2021/05/12 06:00:17;;;;;;;6.27;2.10;;;13.90;55.90;;;;;;5018766;28;20473;-88
2021/05/12 06:02:44;;;;;;;2.33;2.17;;;13.80;55.50;;;;;;5017951;28;20436;-88
2021/05/12 06:05:12;;;;;;;1.83;1.83;;;13.80;54.80;;;;;;5006400;28;20427;-88
2021/05/12 06:07:38;;;;;;;3.13;2.20;;;14.10;53.30;;;;;;5013252;28;20499;-89
2021/05/12 06:10:08;;;;;;;6.03;2.40;;;14.00;53.70;;;;;;5006811;28;20474;-88
2021/05/12 06:12:35;;;;;;;3.17;2.00;;;14.10;53.30;;;;;;5000566;28;20526;-87
2021/05/12 06:15:01;;;;;;;3.90;2.00;;;13.90;53.70;;;;;;4998948;28;20458;-88
2021/05/12 06:17:28;;;;;;;3.93;2.10;;;13.80;54.50;;;;;;4999299;28;20443;-88
2021/05/12 06:19:55;;;;;;;2.70;2.10;;;13.70;54.80;;;;;;4998885;28;20518;-88
2021/05/12 06:22:21;;;;;;;3.57;2.10;;;13.80;55.00;;;;;;4999877;28;20479;-88
2021/05/12 06:24:48;;;;;;;2.37;2.07;;;13.80;55.90;;;;;;5000015;28;20466;-88
2021/05/12 06:27:15;;;;;;;3.20;2.00;;;13.60;54.10;;;;;;4999890;28;20502;-88
2021/05/12 06:29:42;;;;;;;1.90;1.90;;;13.80;55.30;;;;;;4999375;28;20482;-88
2021/05/12 06:32:09;;;;;;;2.20;2.00;;;13.90;53.50;;;;;;4999488;28;20439;-88
2021/05/12 06:34:35;;;;;;;11.03;2.43;;;14.40;53.60;;;;;;4998974;28;20445;-88
2021/05/12 06:37:02;;;;;;;4.80;2.40;;;14.30;53.50;;;;;;4999963;28;20443;-87
2021/05/12 06:39:29;;;;;;;2.13;2.03;;;13.90;54.30;;;;;;4999478;28;20813;-87
2021/05/12 06:41:56;;;;;;;2.33;2.20;;;13.60;55.40;;;;;;4999183;28;20463;-87
2021/05/12 06:44:24;;;;;;;2.60;2.27;;;13.50;56.80;;;;;;4998933;28;20444;-87
2021/05/12 06:46:51;;;;;;;3.70;1.90;;;13.80;56.00;;;;;;4999769;28;20467;-88
2021/05/12 06:49:17;;;;;;;3.70;2.23;;;14.10;54.30;;;;;;5008953;28;20442;-89
2021/05/12 06:51:44;;;;;;;6.20;2.33;;;14.00;54.50;;;;;;5017336;28;20439;-88
2021/05/12 06:54:11;;;;;;;4.07;2.27;;;14.10;54.70;;;;;;5006848;28;20439;-87
2021/05/12 06:56:37;;;;;;;6.53;2.20;;;14.00;53.70;;;;;;5016267;28;20450;-89
2021/05/12 06:59:04;;;;;;;2.60;2.40;;;13.60;54.50;;;;;;5002934;28;20825;-87
2021/05/12 07:01:31;;;;;;;2.50;2.37;;;13.80;55.00;;;;;;5000593;28;20436;-88
2021/05/12 07:03:58;;;;;;;6.03;2.30;;;14.20;53.80;;;;;;4996550;28;20456;-88
2021/05/12 07:06:24;;;;;;;4.10;2.40;;;14.50;53.60;;;;;;4995045;28;20479;-88
2021/05/12 07:08:51;;;;;;;8.90;2.40;;;14.00;54.50;;;;;;4994955;28;20876;-88
2021/05/12 07:11:18;;;;;;;7.00;2.70;;;14.00;54.20;;;;;;4996259;28;20487;-87
2021/05/12 07:13:45;;;;;;;6.53;2.60;;;14.20;53.40;;;;;;4994368;28;20551;-87
2021/05/12 07:16:11;;;;;;;3.50;2.40;;;13.80;54.60;;;;;;4994608;28;20451;-87
2021/05/12 07:18:38;;;;;;;3.60;2.10;;;13.60;55.00;;;;;;4992913;28;20538;-87
2021/05/12 07:21:05;;;;;;;4.90;3.00;;;13.50;55.20;;;;;;4993831;28;20471;-87
2021/05/12 07:23:32;;;;;;;4.67;2.30;;;13.70;55.30;;;;;;4993925;28;20471;-86
2021/05/12 07:25:58;;;;;;;4.00;2.60;;;13.80;55.50;;;;;;4994008;28;20446;-87
2021/05/12 07:28:25;;;;;;;4.57;3.13;;;14.00;54.60;;;;;;4993662;28;20494;-87
2021/05/12 07:30:52;;;;;;;3.30;2.80;;;14.50;53.60;;;;;;5012505;28;20541;-88
2021/05/12 07:33:18;;;;;;;2.80;2.47;;;15.00;52.50;;;;;;5009048;28;20556;-88
2021/05/12 07:35:46;;;;;;;4.93;2.47;;;16.00;50.80;;;;;;4993401;28;20514;-88
2021/05/12 07:38:13;;;;;;;4.90;3.03;;;15.60;50.00;;;;;;4993613;28;20943;-87
2021/05/12 07:40:39;;;;;;;5.00;2.80;;;15.60;50.10;;;;;;4993936;28;20487;-88
2021/05/12 07:43:09;;;;;;;7.80;2.80;;;16.00;50.50;;;;;;4993729;28;20516;-88
2021/05/12 07:45:37;;;;;;;4.80;2.77;;;16.00;49.10;;;;;;4994067;28;20539;-88
2021/05/12 07:48:04;;;;;;;4.13;2.50;;;15.80;49.20;;;;;;4993736;28;20497;-88
2021/05/12 07:50:31;;;;;;;4.53;3.33;;;15.90;50.20;;;;;;4994058;28;20498;-88
2021/05/12 07:53:00;;;;;;;3.33;2.57;;;16.30;48.40;;;;;;4993868;28;20541;-88
2021/05/12 07:55:28;;;;;;;4.80;2.63;;;16.20;49.10;;;;;;4993613;28;20798;-88
2021/05/12 07:57:55;;;;;;;3.70;2.90;;;16.20;48.20;;;;;;4994104;28;20450;-88
2021/05/12 08:00:22;;;;;;;3.40;2.40;;;16.20;48.30;;;;;;4994456;28;20480;-88
2021/05/12 08:02:49;;;;;;;4.00;2.50;;;16.20;48.80;;;;;;4993922;28;20961;-88
2021/05/12 08:05:16;;;;;;;4.30;2.77;;;16.20;48.80;;;;;;4993153;28;20469;-88
2021/05/12 08:07:42;;;;;;;4.53;2.50;;;15.50;49.90;;;;;;4993905;28;20537;-88
2021/05/12 08:10:11;;;;;;;9.00;3.60;;;15.90;49.90;;;;;;4996460;28;20495;-88
2021/05/12 08:12:38;;;;;;;5.10;2.90;;;15.70;49.60;;;;;;5016919;28;20419;-89
2021/05/12 08:15:05;;;;;;;6.80;2.90;;;15.50;51.00;;;;;;5000696;28;20440;-88
2021/05/12 08:17:32;;;;;;;10.60;3.53;;;15.60;50.60;;;;;;4993455;28;20972;-88
2021/05/12 08:20:00;;;;;;;3.80;2.77;;;16.40;49.60;;;;;;4993493;28;20470;-88
2021/05/12 08:22:26;;;;;;;5.27;3.10;;;16.70;48.10;;;;;;4993639;28;20454;-88
2021/05/12 08:24:53;;;;;;;3.80;2.87;;;16.50;48.50;;;;;;4993566;28;20591;-88
2021/05/12 08:27:21;;;;;;;7.43;3.47;;;16.40;48.80;;;;;;4993440;28;20545;-88
2021/05/12 08:29:47;;;;;;;4.57;2.77;;;16.60;48.50;;;;;;4993946;28;20813;-88
2021/05/12 08:32:16;;;;;;;10.97;3.13;;;16.90;48.20;;;;;;4997373;28;20548;-88
2021/05/12 08:34:43;;;;;;;4.03;2.73;;;17.10;47.50;;;;;;4997006;28;20455;-88
2021/05/12 08:37:09;;;;;;;8.70;2.90;;;17.20;46.70;;;;;;4996969;28;20960;-88
2021/05/12 08:39:36;;;;;;;7.13;2.57;;;17.30;46.80;;;;;;4996955;28;20509;-88
2021/05/12 08:42:03;;;;;;;6.50;3.10;;;17.30;46.10;;;;;;4997135;28;20475;-86
2021/05/12 08:44:33;;;;;;;2.97;2.50;;;17.20;46.40;;;;;;4996953;28;20521;-87
2021/05/12 08:47:01;;;;;;;5.00;2.47;;;16.30;48.30;;;;;;4997696;28;20855;-86
2021/05/12 08:49:28;;;;;;;9.73;2.80;;;15.40;50.50;;;;;;4996926;28;20846;-86
2021/05/12 08:51:54;;;;;;;3.77;2.90;;;15.30;51.10;;;;;;4996804;28;20467;-87
2021/05/12 08:54:22;;;;;;;2.80;2.50;;;15.00;52.10;;;;;;4999474;28;20441;-87
2021/05/12 08:56:48;;;;;;;4.10;2.80;;;14.90;52.20;;;;;;4996834;28;20461;-88
2021/05/12 08:59:15;;;;;;;4.00;2.57;;;14.70;53.20;;;;;;4996381;28;20466;-88
2021/05/12 09:01:43;;;;;;;3.87;2.93;;;15.10;52.30;;;;;;4996729;28;20440;-88
2021/05/12 09:04:10;;;;;;;7.10;3.30;;;15.10;52.30;;;;;;4989688;28;20944;-88
2021/05/12 09:06:38;;;;;;;14.83;2.97;;;14.80;53.90;;;;;;4977152;28;20454;-87
2021/05/12 09:09:07;;;;;;;3.80;3.27;;;14.80;52.90;;;;;;4977221;28;20486;-88
2021/05/12 09:11:33;;;;;;;4.47;2.53;;;14.50;53.70;;;;;;4977414;28;20437;-88
2021/05/12 09:14:01;;;;;;;3.70;2.57;;;15.00;52.80;;;;;;4981262;28;20500;-88
2021/05/12 09:16:29;;;;;;;4.33;2.47;;;15.10;52.30;;;;;;4996811;28;20456;-88
2021/05/12 09:19:05;;;;;;;6.37;2.93;;;15.10;53.10;;;;;;4996314;28;20985;-88
2021/05/12 09:21:42;;;;;;;4.40;2.60;;;15.40;52.10;;;;;;5033306;23;20532;-82
2021/05/12 09:24:22;;;;;;;3.67;2.57;;;15.90;50.90;;;;;;5012522;28;20447;-81
2021/05/12 09:26:50;;;;;;;10.40;2.90;;;16.10;50.70;;;;;;5012957;28;20441;-82
2021/05/12 09:29:28;;;;;;;4.90;2.80;;;16.30;49.70;;;;;;5013650;28;20489;-82
2021/05/12 09:32:07;;;;;;;3.07;2.60;;;16.10;50.40;;;;;;4994524;28;20446;-82
2021/05/12 09:34:51;;;;;;;8.13;2.73;;;15.60;51.50;;;;;;4995066;28;20446;-82
2021/05/12 09:37:26;;;;;;;4.53;2.80;;;15.60;52.60;;;;;;4994998;28;20443;-82
2021/05/12 09:39:53;;;;;;;6.13;2.80;;;15.70;52.50;;;;;;4995808;28;20466;-83
2021/05/12 09:42:21;;;;;;;3.93;2.60;;;15.80;51.70;;;;;;4996011;28;20471;-82
2021/05/12 09:44:48;;;;;;;6.13;2.90;;;16.10;50.50;;;;;;4990334;28;20467;-83
2021/05/12 09:47:29;;;;;;;5.80;2.90;;;16.30;49.80;;;;;;4990737;28;20877;-83
2021/05/12 09:49:56;;;;;;;4.83;2.70;;;16.50;49.40;;;;;;4989847;28;20480;-83
2021/05/12 09:52:30;;;;;;;3.20;2.50;;;16.90;48.70;;;;;;4990424;28;20464;-83
2021/05/12 09:55:01;;;;;;;5.30;2.80;;;17.00;48.80;;;;;;4990074;28;20548;-83
2021/05/12 09:57:27;;;;;;;7.03;2.57;;;17.20;47.90;;;;;;4989662;28;20475;-83
2021/05/12 09:59:54;;;;;;;5.80;2.87;;;17.60;47.00;;;;;;4989687;28;20554;-83
2021/05/12 10:02:20;;;;;;;7.07;2.83;;;17.30;46.70;;;;;;4988719;28;20863;-83
2021/05/12 10:04:47;;;;;;;10.27;2.70;;;17.40;47.10;;;;;;4988456;28;20463;-81
2021/05/12 10:07:16;;;;;;;7.87;3.20;;;17.50;47.40;;;;;;4987329;28;20432;-81
2021/05/12 10:09:45;;;;;;;9.93;2.80;;;17.50;47.00;;;;;;4988289;28;20981;-81
2021/05/12 10:12:14;;;;;;;6.63;3.10;;;17.90;46.90;;;;;;4987785;28;20448;-81
2021/05/12 10:14:42;;;;;;;8.53;2.90;;;17.90;45.30;;;;;;4989044;28;20463;-81
2021/05/12 10:17:11;;;;;;;8.10;5.63;;;17.50;47.40;;;;;;4988077;28;20456;-81
2021/05/12 10:19:38;;;;;;;5.30;3.50;;;17.80;47.20;;;;;;4988707;28;20846;-82
2021/05/12 10:22:06;;;;;;;7.37;3.43;;;18.10;46.80;;;;;;4988298;28;20439;-82
2021/05/12 10:24:35;;;;;;;6.13;2.90;;;17.80;45.80;;;;;;4998836;28;20436;-82
2021/05/12 10:27:08;;;;;;;6.80;2.60;;;17.90;45.80;;;;;;4999619;28;20420;-83
2021/05/12 10:29:37;;;;;;;4.63;2.60;;;17.80;45.80;;;;;;4999615;28;20444;-84
2021/05/12 10:32:15;;;;;;;5.30;2.63;;;17.90;45.90;;;;;;4999642;28;20544;-83
2021/05/12 10:34:42;;;;;;;3.50;2.30;;;18.00;45.60;;;;;;4999337;28;20544;-83
2021/05/12 10:37:22;;;;;;;4.03;2.90;;;18.10;46.00;;;;;;4999532;28;20444;-82
2021/05/12 10:39:59;;;;;;;6.93;2.80;;;18.10;45.30;;;;;;4999100;28;20487;-84
2021/05/12 10:42:44;;;;;;;3.80;2.50;;;18.30;45.00;;;;;;4999428;28;20475;-84
2021/05/12 10:45:14;;;;;;;10.80;2.50;;;18.20;44.30;;;;;;4985694;28;20503;-84
2021/05/12 10:47:40;;;;;;;3.90;2.73;;;18.20;44.80;;;;;;4999461;28;20476;-85
2021/05/12 10:50:07;;;;;;;4.70;2.50;;;18.20;44.50;;;;;;4994313;28;20472;-82
2021/05/12 10:52:34;;;;;;;3.77;2.63;;;17.80;45.00;;;;;;4996319;28;20452;-83
2021/05/12 10:55:01;;;;;;;10.27;2.90;;;17.70;45.00;;;;;;4996601;28;20451;-84
2021/05/12 10:57:46;;;;;;;4.50;2.67;;;17.70;45.50;;;;;;4995109;28;20455;-83
2021/05/12 11:00:14;;;;;;;11.20;2.90;;;18.00;45.50;;;;;;4992722;28;20452;-83
2021/05/12 11:03:00;;;;;;;5.80;2.83;;;17.80;45.20;;;;;;4991193;28;20488;-83
2021/05/12 11:05:41;;;;;;;6.03;2.83;;;17.70;45.20;;;;;;4990635;28;20460;-83
2021/05/12 11:08:15;;;;;;;3.90;2.87;;;17.80;45.50;;;;;;4993086;28;20510;-83
2021/05/12 11:10:53;;;;;;;5.17;2.47;;;18.10;44.90;;;;;;4994079;28;20468;-82
2021/05/12 11:13:22;;;;;;;11.13;3.20;;;18.20;44.40;;;;;;4993134;28;20435;-83
2021/05/12 11:15:53;;;;;;;5.33;2.90;;;18.30;43.00;;;;;;4993265;28;20459;-83
2021/05/12 11:18:49;;;;;;;11.67;3.23;;;18.20;43.50;;;;;;4992372;28;20440;-83
2021/05/12 11:21:36;;;;;;;8.20;2.87;;;18.30;43.00;;;;;;4975273;28;20479;-83
2021/05/12 11:24:18;;;;;;;4.80;3.03;;;18.10;44.00;;;;;;4991383;28;20432;-83
2021/05/12 11:27:00;;;;;;;7.93;3.23;;;18.30;43.60;;;;;;4992037;28;20491;-83
2021/05/12 11:32:23;;;;;;;5.53;2.93;;;17.90;44.20;;;;;;4997675;28;20459;-82
2021/05/12 11:34:50;;;;;;;8.73;2.60;;;17.80;43.60;;;;;;4998687;28;20441;-83
2021/05/12 11:37:20;;;;;;;6.00;2.80;;;17.90;43.90;;;;;;4998401;28;20435;-84
2021/05/12 11:39:48;;;;;;;4.00;2.50;;;17.80;44.10;;;;;;4998830;28;20519;-85
2021/05/12 11:42:22;;;;;;;5.47;2.90;;;18.20;43.90;;;;;;4998213;28;20424;-84
2021/05/12 11:45:01;;;;;;;6.03;2.83;;;18.60;43.30;;;;;;4994532;28;20480;-83
2021/05/12 11:47:29;;;;;;;4.63;2.87;;;18.70;42.60;;;;;;4990044;28;20433;-83
2021/05/12 11:49:55;;;;;;;17.03;5.70;;;18.70;43.30;;;;;;4990140;28;20472;-83
2021/05/12 11:52:28;;;;;;;7.87;3.47;;;18.90;43.10;;;;;;4990051;28;20452;-83
2021/05/12 11:54:54;;;;;;;8.90;2.90;;;18.90;41.80;;;;;;4989133;28;20464;-83
2021/05/12 11:57:22;;;;;;;6.83;3.90;;;18.60;42.70;;;;;;4984450;28;20942;-84
2021/05/12 11:59:48;;;;;;;10.90;3.30;;;19.00;42.20;;;;;;4983556;28;20563;-83
2021/05/12 12:02:14;;;;;;;6.53;3.23;;;19.30;41.70;;;;;;4982628;28;20486;-82
2021/05/12 12:04:51;;;;;;;5.07;2.60;;;19.60;41.40;;;;;;4981995;28;20511;-83
2021/05/12 12:07:17;;;;;;;3.60;2.43;;;19.50;40.70;;;;;;4987064;28;20454;-84
2021/05/12 12:09:44;;;;;;;7.70;2.67;;;18.80;41.10;;;;;;4986335;28;20804;-84
2021/05/12 12:12:11;;;;;;;5.80;2.50;;;18.60;41.00;;;;;;4988821;28;20536;-83
2021/05/12 12:14:38;;;;;;;6.40;2.90;;;18.80;41.10;;;;;;4987125;28;20455;-83
2021/05/12 12:17:09;;;;;;;7.60;2.90;;;18.50;42.20;;;;;;4986016;28;20440;-82
2021/05/12 12:19:36;;;;;;;5.00;2.23;;;18.80;40.30;;;;;;4986071;28;20504;-83
2021/05/12 12:22:03;;;;;;;9.00;3.10;;;18.70;41.50;;;;;;4985183;28;20459;-82
2021/05/12 12:24:30;;;;;;;5.50;2.57;;;19.20;40.30;;;;;;4984175;28;20953;-83
2021/05/12 12:26:59;;;;;;;7.67;3.07;;;19.30;39.70;;;;;;4985315;28;20584;-82
2021/05/12 12:29:27;;;;;;;7.00;2.97;;;19.40;39.70;;;;;;4984051;28;20555;-83
2021/05/12 12:31:57;;;;;;;9.00;3.23;;;19.50;39.80;;;;;;4985946;28;20482;-82
2021/05/12 12:34:27;;;;;;;6.10;2.87;;;19.50;39.00;;;;;;4985795;28;20440;-82
2021/05/12 12:37:00;;;;;;;4.70;2.73;;;19.40;39.80;;;;;;4985860;28;20432;-84
2021/05/12 12:39:50;;;;;;;5.83;2.70;;;19.30;39.70;;;;;;4986957;28;21020;-84
2021/05/12 12:42:22;;;;;;;9.53;2.43;;;19.30;39.90;;;;;;4966770;29;20511;-83
2021/05/12 12:44:49;;;;;;;6.20;2.90;;;19.00;40.80;;;;;;4966223;29;20453;-83
2021/05/12 12:47:19;;;;;;;13.00;5.40;;;18.90;40.90;;;;;;4965860;29;20453;-83
2021/05/12 12:49:51;;;;;;;10.60;4.40;;;18.90;41.30;;;;;;4967003;29;20480;-83
2021/05/12 12:52:21;;;;;;;7.60;3.07;;;19.50;40.10;;;;;;4965963;29;20421;-83
2021/05/12 12:54:55;;;;;;;6.73;3.20;;;19.50;39.90;;;;;;4965341;29;20437;-83